sensor_id;sensor_type;location;lat;lon;timestamp;P1;durP1;ratioP1;P2;durP2;ratioP2
26106;SDS011;13866;50.748;12.630;2023-11-22T00:01:49;13.53;;;12.43;;
26106;SDS011;13866;50.748;12.630;2023-11-22T00:04:14;13.23;;;12.03;;
26106;SDS011;13866;50.748;12.630;2023-11-22T00:06:40;12.70;;;11.80;;
26106;SDS011;13866;50.748;12.630;2023-11-22T00:09:06;14.93;;;13.53;;
26106;SDS011;13866;50.748;12.630;2023-11-22T00:11:32;13.43;;;12.43;;
26106;SDS011;13866;50.748;12.630;2023-11-22T00:13:57;13.27;;;12.17;;
26106;SDS011;13866;50.748;12.630;2023-11-22T00:16:23;13.17;;;12.07;;
26106;SDS011;13866;50.748;12.630;2023-11-22T00:18:48;14.03;;;12.77;;
26106;SDS011;13866;50.748;12.630;2023-11-22T00:21:14;13.27;;;12.27;;
26106;SDS011;13866;50.748;12.630;2023-11-22T00:23:39;12.90;;;12.00;;
26106;SDS011;13866;50.748;12.630;2023-11-22T00:26:05;14.27;;;13.07;;
26106;SDS011;13866;50.748;12.630;2023-11-22T00:28:31;15.77;;;14.23;;
26106;SDS011;13866;50.748;12.630;2023-11-22T00:30:57;13.03;;;12.13;;
26106;SDS011;13866;50.748;12.630;2023-11-22T00:33:23;15.23;;;13.93;;
26106;SDS011;13866;50.748;12.630;2023-11-22T00:35:48;16.77;;;15.07;;
26106;SDS011;13866;50.748;12.630;2023-11-22T00:38:15;18.37;;;16.40;;
26106;SDS011;13866;50.748;12.630;2023-11-22T00:40:41;17.23;;;15.60;;
26106;SDS011;13866;50.748;12.630;2023-11-22T00:43:07;18.17;;;15.80;;
26106;SDS011;13866;50.748;12.630;2023-11-22T00:45:33;21.63;;;17.40;;
26106;SDS011;13866;50.748;12.630;2023-11-22T00:47:58;23.80;;;19.20;;
26106;SDS011;13866;50.748;12.630;2023-11-22T00:50:24;22.87;;;18.43;;
26106;SDS011;13866;50.748;12.630;2023-11-22T00:52:49;21.53;;;17.80;;
26106;SDS011;13866;50.748;12.630;2023-11-22T00:55:15;33.23;;;21.20;;
26106;SDS011;13866;50.748;12.630;2023-11-22T00:57:40;28.37;;;20.73;;
26106;SDS011;13866;50.748;12.630;2023-11-22T01:00:06;29.37;;;18.27;;
26106;SDS011;13866;50.748;12.630;2023-11-22T01:02:34;24.43;;;19.17;;
26106;SDS011;13866;50.748;12.630;2023-11-22T01:05:03;38.80;;;20.73;;
26106;SDS011;13866;50.748;12.630;2023-11-22T01:07:32;29.80;;;21.35;;
26106;SDS011;13866;50.748;12.630;2023-11-22T01:09:57;46.97;;;22.00;;
26106;SDS011;13866;50.748;12.630;2023-11-22T01:12:23;48.13;;;20.30;;
26106;SDS011;13866;50.748;12.630;2023-11-22T01:14:48;56.97;;;23.03;;
26106;SDS011;13866;50.748;12.630;2023-11-22T01:17:14;60.03;;;22.13;;
26106;SDS011;13866;50.748;12.630;2023-11-22T01:19:40;55.83;;;24.40;;
26106;SDS011;13866;50.748;12.630;2023-11-22T01:22:05;119.80;;;24.07;;
26106;SDS011;13866;50.748;12.630;2023-11-22T01:24:31;59.67;;;22.37;;
26106;SDS011;13866;50.748;12.630;2023-11-22T01:26:56;111.93;;;25.03;;
26106;SDS011;13866;50.748;12.630;2023-11-22T01:29:22;68.63;;;23.40;;
26106;SDS011;13866;50.748;12.630;2023-11-22T01:31:48;43.80;;;22.00;;
26106;SDS011;13866;50.748;12.630;2023-11-22T01:34:14;63.23;;;23.37;;
26106;SDS011;13866;50.748;12.630;2023-11-22T01:36:43;52.23;;;21.40;;
26106;SDS011;13866;50.748;12.630;2023-11-22T01:39:10;41.05;;;21.23;;
26106;SDS011;13866;50.748;12.630;2023-11-22T01:41:38;39.90;;;22.13;;
26106;SDS011;13866;50.748;12.630;2023-11-22T01:44:04;31.40;;;21.20;;
26106;SDS011;13866;50.748;12.630;2023-11-22T01:46:29;63.33;;;23.23;;
26106;SDS011;13866;50.748;12.630;2023-11-22T01:48:55;52.22;;;22.17;;
26106;SDS011;13866;50.748;12.630;2023-11-22T01:51:21;51.97;;;21.67;;
26106;SDS011;13866;50.748;12.630;2023-11-22T01:53:50;37.30;;;21.77;;
26106;SDS011;13866;50.748;12.630;2023-11-22T01:56:23;38.15;;;23.60;;
26106;SDS011;13866;50.748;12.630;2023-11-22T01:58:51;35.38;;;21.58;;
26106;SDS011;13866;50.748;12.630;2023-11-22T02:01:19;40.65;;;21.85;;
26106;SDS011;13866;50.748;12.630;2023-11-22T02:03:45;35.45;;;22.35;;
26106;SDS011;13866;50.748;12.630;2023-11-22T02:06:14;27.30;;;20.05;;
26106;SDS011;13866;50.748;12.630;2023-11-22T02:08:41;27.30;;;20.27;;
26106;SDS011;13866;50.748;12.630;2023-11-22T02:11:08;26.87;;;19.70;;
26106;SDS011;13866;50.748;12.630;2023-11-22T02:13:34;26.35;;;19.55;;
26106;SDS011;13866;50.748;12.630;2023-11-22T02:16:00;29.73;;;19.50;;
26106;SDS011;13866;50.748;12.630;2023-11-22T02:18:27;29.88;;;21.58;;
26106;SDS011;13866;50.748;12.630;2023-11-22T02:20:53;28.25;;;19.50;;
26106;SDS011;13866;50.748;12.630;2023-11-22T02:23:18;29.17;;;20.50;;
26106;SDS011;13866;50.748;12.630;2023-11-22T02:25:44;29.47;;;20.00;;
26106;SDS011;13866;50.748;12.630;2023-11-22T02:28:10;20.93;;;17.53;;
26106;SDS011;13866;50.748;12.630;2023-11-22T02:30:37;25.90;;;19.57;;
26106;SDS011;13866;50.748;12.630;2023-11-22T02:33:02;26.10;;;19.00;;
26106;SDS011;13866;50.748;12.630;2023-11-22T02:35:29;24.93;;;18.80;;
26106;SDS011;13866;50.748;12.630;2023-11-22T02:37:56;19.58;;;17.40;;
26106;SDS011;13866;50.748;12.630;2023-11-22T02:40:23;24.70;;;18.65;;
26106;SDS011;13866;50.748;12.630;2023-11-22T02:42:49;25.17;;;18.35;;
26106;SDS011;13866;50.748;12.630;2023-11-22T02:45:17;25.35;;;19.10;;
26106;SDS011;13866;50.748;12.630;2023-11-22T02:47:43;23.13;;;17.27;;
26106;SDS011;13866;50.748;12.630;2023-11-22T02:50:09;24.80;;;17.33;;
26106;SDS011;13866;50.748;12.630;2023-11-22T02:52:36;18.50;;;16.15;;
26106;SDS011;13866;50.748;12.630;2023-11-22T02:55:02;17.93;;;15.33;;
26106;SDS011;13866;50.748;12.630;2023-11-22T02:57:29;20.63;;;17.77;;
26106;SDS011;13866;50.748;12.630;2023-11-22T02:59:56;16.50;;;14.55;;
26106;SDS011;13866;50.748;12.630;2023-11-22T03:02:21;26.13;;;15.93;;
26106;SDS011;13866;50.748;12.630;2023-11-22T03:04:47;18.90;;;15.97;;
26106;SDS011;13866;50.748;12.630;2023-11-22T03:07:13;20.47;;;15.37;;
26106;SDS011;13866;50.748;12.630;2023-11-22T03:09:38;20.77;;;15.97;;
26106;SDS011;13866;50.748;12.630;2023-11-22T03:12:06;18.37;;;15.30;;
26106;SDS011;13866;50.748;12.630;2023-11-22T03:14:33;17.92;;;15.88;;
26106;SDS011;13866;50.748;12.630;2023-11-22T03:17:00;18.52;;;15.32;;
26106;SDS011;13866;50.748;12.630;2023-11-22T03:19:25;16.30;;;14.60;;
26106;SDS011;13866;50.748;12.630;2023-11-22T03:21:51;26.13;;;16.90;;
26106;SDS011;13866;50.748;12.630;2023-11-22T03:24:17;20.50;;;15.73;;
26106;SDS011;13866;50.748;12.630;2023-11-22T03:26:42;18.80;;;15.67;;
26106;SDS011;13866;50.748;12.630;2023-11-22T03:29:08;16.33;;;13.80;;
26106;SDS011;13866;50.748;12.630;2023-11-22T03:31:33;15.07;;;13.57;;
26106;SDS011;13866;50.748;12.630;2023-11-22T03:33:59;19.87;;;15.20;;
26106;SDS011;13866;50.748;12.630;2023-11-22T03:36:24;16.30;;;14.80;;
26106;SDS011;13866;50.748;12.630;2023-11-22T03:38:50;16.57;;;15.07;;
26106;SDS011;13866;50.748;12.630;2023-11-22T03:41:16;16.30;;;14.80;;
26106;SDS011;13866;50.748;12.630;2023-11-22T03:43:44;17.17;;;14.10;;
26106;SDS011;13866;50.748;12.630;2023-11-22T03:46:10;16.10;;;14.40;;
26106;SDS011;13866;50.748;12.630;2023-11-22T03:48:36;18.63;;;16.40;;
26106;SDS011;13866;50.748;12.630;2023-11-22T03:51:02;14.87;;;13.37;;
26106;SDS011;13866;50.748;12.630;2023-11-22T03:53:27;15.50;;;13.90;;
26106;SDS011;13866;50.748;12.630;2023-11-22T03:55:54;18.80;;;14.70;;
26106;SDS011;13866;50.748;12.630;2023-11-22T03:58:20;15.87;;;14.00;;
26106;SDS011;13866;50.748;12.630;2023-11-22T04:00:46;15.77;;;14.20;;
26106;SDS011;13866;50.748;12.630;2023-11-22T04:03:11;15.03;;;13.60;;
26106;SDS011;13866;50.748;12.630;2023-11-22T04:05:37;17.03;;;15.17;;
26106;SDS011;13866;50.748;12.630;2023-11-22T04:08:03;13.73;;;12.43;;
26106;SDS011;13866;50.748;12.630;2023-11-22T04:10:28;17.20;;;15.40;;
26106;SDS011;13866;50.748;12.630;2023-11-22T04:12:55;17.30;;;15.13;;
26106;SDS011;13866;50.748;12.630;2023-11-22T04:15:21;19.53;;;15.37;;
26106;SDS011;13866;50.748;12.630;2023-11-22T04:17:46;16.73;;;14.33;;
26106;SDS011;13866;50.748;12.630;2023-11-22T04:20:12;14.40;;;13.00;;
26106;SDS011;13866;50.748;12.630;2023-11-22T04:22:42;16.00;;;14.50;;
26106;SDS011;13866;50.748;12.630;2023-11-22T04:25:10;15.60;;;13.98;;
26106;SDS011;13866;50.748;12.630;2023-11-22T04:27:38;18.50;;;15.00;;
26106;SDS011;13866;50.748;12.630;2023-11-22T04:30:08;16.10;;;14.00;;
26106;SDS011;13866;50.748;12.630;2023-11-22T04:32:38;16.67;;;14.50;;
26106;SDS011;13866;50.748;12.630;2023-11-22T04:35:03;15.07;;;13.03;;
26106;SDS011;13866;50.748;12.630;2023-11-22T04:37:30;16.48;;;14.40;;
26106;SDS011;13866;50.748;12.630;2023-11-22T04:39:57;16.83;;;15.05;;
26106;SDS011;13866;50.748;12.630;2023-11-22T04:42:23;16.63;;;14.93;;
26106;SDS011;13866;50.748;12.630;2023-11-22T04:44:48;16.47;;;13.40;;
26106;SDS011;13866;50.748;12.630;2023-11-22T04:47:14;16.07;;;14.40;;
26106;SDS011;13866;50.748;12.630;2023-11-22T04:49:39;16.77;;;14.40;;
26106;SDS011;13866;50.748;12.630;2023-11-22T04:52:05;15.10;;;13.67;;
26106;SDS011;13866;50.748;12.630;2023-11-22T04:54:30;15.20;;;13.73;;
26106;SDS011;13866;50.748;12.630;2023-11-22T04:56:57;17.10;;;15.10;;
26106;SDS011;13866;50.748;12.630;2023-11-22T04:59:23;14.93;;;13.43;;
26106;SDS011;13866;50.748;12.630;2023-11-22T05:01:49;22.07;;;15.70;;
26106;SDS011;13866;50.748;12.630;2023-11-22T05:04:14;14.77;;;13.43;;
26106;SDS011;13866;50.748;12.630;2023-11-22T05:06:40;15.93;;;14.00;;
26106;SDS011;13866;50.748;12.630;2023-11-22T05:09:05;15.00;;;12.90;;
26106;SDS011;13866;50.748;12.630;2023-11-22T05:11:31;18.50;;;14.43;;
26106;SDS011;13866;50.748;12.630;2023-11-22T05:13:57;21.73;;;14.90;;
26106;SDS011;13866;50.748;12.630;2023-11-22T05:16:22;18.30;;;13.67;;
26106;SDS011;13866;50.748;12.630;2023-11-22T05:18:48;19.43;;;14.80;;
26106;SDS011;13866;50.748;12.630;2023-11-22T05:21:14;21.50;;;15.63;;
26106;SDS011;13866;50.748;12.630;2023-11-22T05:23:40;16.80;;;14.70;;
26106;SDS011;13866;50.748;12.630;2023-11-22T05:26:06;17.90;;;15.60;;
26106;SDS011;13866;50.748;12.630;2023-11-22T05:28:32;16.30;;;14.60;;
26106;SDS011;13866;50.748;12.630;2023-11-22T05:30:58;19.23;;;16.30;;
26106;SDS011;13866;50.748;12.630;2023-11-22T05:33:24;20.30;;;15.93;;
26106;SDS011;13866;50.748;12.630;2023-11-22T05:35:49;18.90;;;15.70;;
26106;SDS011;13866;50.748;12.630;2023-11-22T05:38:15;15.53;;;13.97;;
26106;SDS011;13866;50.748;12.630;2023-11-22T05:40:41;15.73;;;14.20;;
26106;SDS011;13866;50.748;12.630;2023-11-22T05:43:08;19.50;;;17.40;;
26106;SDS011;13866;50.748;12.630;2023-11-22T05:45:34;18.23;;;15.35;;
26106;SDS011;13866;50.748;12.630;2023-11-22T05:48:00;17.70;;;16.07;;
26106;SDS011;13866;50.748;12.630;2023-11-22T05:50:26;17.20;;;14.33;;
26106;SDS011;13866;50.748;12.630;2023-11-22T05:52:51;17.63;;;15.33;;
26106;SDS011;13866;50.748;12.630;2023-11-22T05:55:17;40.83;;;19.47;;
26106;SDS011;13866;50.748;12.630;2023-11-22T05:57:43;18.13;;;16.33;;
26106;SDS011;13866;50.748;12.630;2023-11-22T06:00:09;18.77;;;16.83;;
26106;SDS011;13866;50.748;12.630;2023-11-22T06:02:35;20.98;;;15.55;;
26106;SDS011;13866;50.748;12.630;2023-11-22T06:05:04;17.23;;;15.52;;
26106;SDS011;13866;50.748;12.630;2023-11-22T06:07:30;19.85;;;16.00;;
26106;SDS011;13866;50.748;12.630;2023-11-22T06:09:56;19.53;;;15.90;;
26106;SDS011;13866;50.748;12.630;2023-11-22T06:12:22;19.00;;;17.07;;
26106;SDS011;13866;50.748;12.630;2023-11-22T06:14:48;20.50;;;17.00;;
26106;SDS011;13866;50.748;12.630;2023-11-22T06:17:14;17.37;;;15.60;;
26106;SDS011;13866;50.748;12.630;2023-11-22T06:19:39;18.03;;;16.40;;
26106;SDS011;13866;50.748;12.630;2023-11-22T06:22:06;17.10;;;15.38;;
26106;SDS011;13866;50.748;12.630;2023-11-22T06:24:32;33.93;;;16.80;;
26106;SDS011;13866;50.748;12.630;2023-11-22T06:26:58;18.65;;;16.63;;
26106;SDS011;13866;50.748;12.630;2023-11-22T06:29:24;25.00;;;16.30;;
26106;SDS011;13866;50.748;12.630;2023-11-22T06:31:49;18.33;;;15.67;;
26106;SDS011;13866;50.748;12.630;2023-11-22T06:34:15;17.73;;;15.97;;
26106;SDS011;13866;50.748;12.630;2023-11-22T06:36:40;18.77;;;16.77;;
26106;SDS011;13866;50.748;12.630;2023-11-22T06:39:06;26.27;;;18.70;;
26106;SDS011;13866;50.748;12.630;2023-11-22T06:41:34;16.70;;;15.10;;
26106;SDS011;13866;50.748;12.630;2023-11-22T06:43:59;20.67;;;17.67;;
26106;SDS011;13866;50.748;12.630;2023-11-22T06:46:25;21.70;;;16.50;;
26106;SDS011;13866;50.748;12.630;2023-11-22T06:48:50;15.93;;;14.50;;
26106;SDS011;13866;50.748;12.630;2023-11-22T06:51:16;18.67;;;15.73;;
26106;SDS011;13866;50.748;12.630;2023-11-22T06:53:43;18.58;;;16.58;;
26106;SDS011;13866;50.748;12.630;2023-11-22T06:56:09;25.00;;;18.60;;
26106;SDS011;13866;50.748;12.630;2023-11-22T06:58:36;18.45;;;16.40;;
26106;SDS011;13866;50.748;12.630;2023-11-22T07:01:01;18.47;;;16.63;;
26106;SDS011;13866;50.748;12.630;2023-11-22T07:03:27;20.80;;;17.17;;
26106;SDS011;13866;50.748;12.630;2023-11-22T07:05:52;19.63;;;16.33;;
26106;SDS011;13866;50.748;12.630;2023-11-22T07:08:18;19.87;;;17.63;;
26106;SDS011;13866;50.748;12.630;2023-11-22T07:10:43;18.13;;;15.70;;
26106;SDS011;13866;50.748;12.630;2023-11-22T07:13:10;18.98;;;16.60;;
26106;SDS011;13866;50.748;12.630;2023-11-22T07:15:36;17.00;;;15.20;;
26106;SDS011;13866;50.748;12.630;2023-11-22T07:18:01;19.37;;;15.03;;
26106;SDS011;13866;50.748;12.630;2023-11-22T07:20:27;16.33;;;14.63;;
26106;SDS011;13866;50.748;12.630;2023-11-22T07:22:52;18.03;;;15.77;;
26106;SDS011;13866;50.748;12.630;2023-11-22T07:25:22;22.13;;;16.58;;
26106;SDS011;13866;50.748;12.630;2023-11-22T07:27:50;18.27;;;16.38;;
26106;SDS011;13866;50.748;12.630;2023-11-22T07:30:16;20.13;;;16.83;;
26106;SDS011;13866;50.748;12.630;2023-11-22T07:32:44;21.38;;;18.20;;
26106;SDS011;13866;50.748;12.630;2023-11-22T07:35:09;18.17;;;16.27;;
26106;SDS011;13866;50.748;12.630;2023-11-22T07:37:36;19.40;;;17.10;;
26106;SDS011;13866;50.748;12.630;2023-11-22T07:40:07;19.25;;;16.50;;
26106;SDS011;13866;50.748;12.630;2023-11-22T07:42:35;24.23;;;16.65;;
26106;SDS011;13866;50.748;12.630;2023-11-22T07:45:01;25.53;;;17.40;;
26106;SDS011;13866;50.748;12.630;2023-11-22T07:47:27;17.80;;;16.00;;
26106;SDS011;13866;50.748;12.630;2023-11-22T07:49:53;19.17;;;15.10;;
26106;SDS011;13866;50.748;12.630;2023-11-22T07:52:20;18.57;;;16.57;;
26106;SDS011;13866;50.748;12.630;2023-11-22T07:54:46;19.60;;;17.50;;
26106;SDS011;13866;50.748;12.630;2023-11-22T07:57:12;21.73;;;17.90;;
26106;SDS011;13866;50.748;12.630;2023-11-22T07:59:38;23.90;;;16.60;;
26106;SDS011;13866;50.748;12.630;2023-11-22T08:02:05;18.43;;;16.53;;
26106;SDS011;13866;50.748;12.630;2023-11-22T08:04:36;29.47;;;17.37;;
26106;SDS011;13866;50.748;12.630;2023-11-22T08:07:02;21.50;;;18.17;;
26106;SDS011;13866;50.748;12.630;2023-11-22T08:09:29;20.67;;;17.40;;
26106;SDS011;13866;50.748;12.630;2023-11-22T08:11:58;27.98;;;17.67;;
26106;SDS011;13866;50.748;12.630;2023-11-22T08:14:26;20.45;;;17.50;;
26106;SDS011;13866;50.748;12.630;2023-11-22T08:16:52;21.90;;;17.83;;
26106;SDS011;13866;50.748;12.630;2023-11-22T08:19:18;19.05;;;16.95;;
26106;SDS011;13866;50.748;12.630;2023-11-22T08:21:44;21.10;;;17.70;;
26106;SDS011;13866;50.748;12.630;2023-11-22T08:24:09;19.90;;;16.70;;
26106;SDS011;13866;50.748;12.630;2023-11-22T08:26:37;28.67;;;21.97;;
26106;SDS011;13866;50.748;12.630;2023-11-22T08:29:04;25.53;;;20.53;;
26106;SDS011;13866;50.748;12.630;2023-11-22T08:31:29;18.87;;;16.50;;
26106;SDS011;13866;50.748;12.630;2023-11-22T08:33:55;20.43;;;17.00;;
26106;SDS011;13866;50.748;12.630;2023-11-22T08:36:21;18.83;;;16.60;;
26106;SDS011;13866;50.748;12.630;2023-11-22T08:38:48;21.52;;;16.73;;
26106;SDS011;13866;50.748;12.630;2023-11-22T08:41:14;20.60;;;17.27;;
26106;SDS011;13866;50.748;12.630;2023-11-22T08:43:40;21.40;;;19.00;;
26106;SDS011;13866;50.748;12.630;2023-11-22T08:46:06;20.40;;;16.67;;
26106;SDS011;13866;50.748;12.630;2023-11-22T08:48:33;26.15;;;16.80;;
26106;SDS011;13866;50.748;12.630;2023-11-22T08:51:00;23.38;;;16.42;;
26106;SDS011;13866;50.748;12.630;2023-11-22T08:53:26;23.65;;;17.85;;
26106;SDS011;13866;50.748;12.630;2023-11-22T08:55:52;20.87;;;18.00;;
26106;SDS011;13866;50.748;12.630;2023-11-22T08:58:19;22.30;;;17.88;;
26106;SDS011;13866;50.748;12.630;2023-11-22T09:00:45;26.17;;;18.77;;
26106;SDS011;13866;50.748;12.630;2023-11-22T09:03:11;25.60;;;17.77;;
26106;SDS011;13866;50.748;12.630;2023-11-22T09:05:37;23.38;;;18.00;;
26106;SDS011;13866;50.748;12.630;2023-11-22T09:08:07;22.83;;;18.17;;
26106;SDS011;13866;50.748;12.630;2023-11-22T09:10:38;22.52;;;19.30;;
26106;SDS011;13866;50.748;12.630;2023-11-22T09:13:04;23.88;;;19.05;;
26106;SDS011;13866;50.748;12.630;2023-11-22T09:15:30;24.88;;;18.80;;
26106;SDS011;13866;50.748;12.630;2023-11-22T09:17:58;23.45;;;18.23;;
26106;SDS011;13866;50.748;12.630;2023-11-22T09:20:24;26.10;;;20.83;;
26106;SDS011;13866;50.748;12.630;2023-11-22T09:22:50;22.13;;;17.27;;
26106;SDS011;13866;50.748;12.630;2023-11-22T09:25:19;24.52;;;18.60;;
26106;SDS011;13866;50.748;12.630;2023-11-22T09:27:46;19.70;;;17.67;;
26106;SDS011;13866;50.748;12.630;2023-11-22T09:30:14;26.27;;;18.58;;
26106;SDS011;13866;50.748;12.630;2023-11-22T09:32:45;33.45;;;19.77;;
26106;SDS011;13866;50.748;12.630;2023-11-22T09:35:12;25.45;;;17.83;;
26106;SDS011;13866;50.748;12.630;2023-11-22T09:37:39;27.33;;;19.40;;
26106;SDS011;13866;50.748;12.630;2023-11-22T09:40:07;28.77;;;19.75;;
26106;SDS011;13866;50.748;12.630;2023-11-22T09:42:34;26.80;;;19.13;;
26106;SDS011;13866;50.748;12.630;2023-11-22T09:44:59;26.93;;;20.03;;
26106;SDS011;13866;50.748;12.630;2023-11-22T09:47:26;30.47;;;20.50;;
26106;SDS011;13866;50.748;12.630;2023-11-22T09:49:53;32.67;;;21.23;;
26106;SDS011;13866;50.748;12.630;2023-11-22T09:52:21;34.65;;;21.55;;
26106;SDS011;13866;50.748;12.630;2023-11-22T09:54:49;32.85;;;21.73;;
26106;SDS011;13866;50.748;12.630;2023-11-22T09:57:17;35.67;;;22.52;;
26106;SDS011;13866;50.748;12.630;2023-11-22T09:59:44;29.80;;;22.42;;
26106;SDS011;13866;50.748;12.630;2023-11-22T10:02:11;29.70;;;21.38;;
26106;SDS011;13866;50.748;12.630;2023-11-22T10:04:37;30.90;;;20.53;;
26106;SDS011;13866;50.748;12.630;2023-11-22T10:07:03;31.45;;;21.60;;
26106;SDS011;13866;50.748;12.630;2023-11-22T10:09:29;33.22;;;22.20;;
26106;SDS011;13866;50.748;12.630;2023-11-22T10:11:57;30.73;;;19.77;;
26106;SDS011;13866;50.748;12.630;2023-11-22T10:14:23;27.83;;;21.35;;
26106;SDS011;13866;50.748;12.630;2023-11-22T10:16:57;35.60;;;22.77;;
26106;SDS011;13866;50.748;12.630;2023-11-22T10:19:23;32.47;;;21.55;;
26106;SDS011;13866;50.748;12.630;2023-11-22T10:21:59;35.25;;;22.58;;
26106;SDS011;13866;50.748;12.630;2023-11-22T10:24:34;36.27;;;23.37;;
26106;SDS011;13866;50.748;12.630;2023-11-22T10:27:01;28.52;;;21.15;;
26106;SDS011;13866;50.748;12.630;2023-11-22T10:29:27;31.13;;;21.73;;
26106;SDS011;13866;50.748;12.630;2023-11-22T10:31:54;30.88;;;21.20;;
26106;SDS011;13866;50.748;12.630;2023-11-22T10:34:23;37.40;;;23.20;;
26106;SDS011;13866;50.748;12.630;2023-11-22T10:36:49;26.70;;;21.08;;
26106;SDS011;13866;50.748;12.630;2023-11-22T10:39:20;34.97;;;23.57;;
26106;SDS011;13866;50.748;12.630;2023-11-22T10:41:46;19.20;;;16.27;;
26106;SDS011;13866;50.748;12.630;2023-11-22T10:44:12;23.70;;;16.80;;
26106;SDS011;13866;50.748;12.630;2023-11-22T10:46:40;15.93;;;14.43;;
26106;SDS011;13866;50.748;12.630;2023-11-22T10:49:06;16.63;;;14.93;;
26106;SDS011;13866;50.748;12.630;2023-11-22T10:51:32;24.00;;;15.60;;
26106;SDS011;13866;50.748;12.630;2023-11-22T10:53:59;16.88;;;15.25;;
26106;SDS011;13866;50.748;12.630;2023-11-22T10:56:28;17.10;;;14.63;;
26106;SDS011;13866;50.748;12.630;2023-11-22T10:58:58;17.80;;;15.75;;
26106;SDS011;13866;50.748;12.630;2023-11-22T11:01:26;16.35;;;14.75;;
26106;SDS011;13866;50.748;12.630;2023-11-22T11:06:37;16.00;;;14.38;;
26106;SDS011;13866;50.748;12.630;2023-11-22T11:09:05;18.73;;;16.63;;
26106;SDS011;13866;50.748;12.630;2023-11-22T11:11:34;17.63;;;15.93;;
26106;SDS011;13866;50.748;12.630;2023-11-22T11:14:01;23.45;;;14.52;;
26106;SDS011;13866;50.748;12.630;2023-11-22T11:16:29;19.38;;;15.88;;
26106;SDS011;13866;50.748;12.630;2023-11-22T11:18:57;24.38;;;16.90;;
26106;SDS011;13866;50.748;12.630;2023-11-22T11:21:24;16.97;;;15.23;;
26106;SDS011;13866;50.748;12.630;2023-11-22T11:23:51;17.60;;;15.73;;
26106;SDS011;13866;50.748;12.630;2023-11-22T11:26:20;14.02;;;12.60;;
26106;SDS011;13866;50.748;12.630;2023-11-22T11:28:47;16.85;;;15.13;;
26106;SDS011;13866;50.748;12.630;2023-11-22T11:31:14;18.33;;;15.13;;
26106;SDS011;13866;50.748;12.630;2023-11-22T11:36:22;17.65;;;15.05;;
26106;SDS011;13866;50.748;12.630;2023-11-22T11:38:55;16.25;;;14.65;;
26106;SDS011;13866;50.748;12.630;2023-11-22T11:41:28;21.08;;;17.45;;
26106;SDS011;13866;50.748;12.630;2023-11-22T11:44:04;19.10;;;16.37;;
26106;SDS011;13866;50.748;12.630;2023-11-22T11:46:33;18.42;;;16.38;;
26106;SDS011;13866;50.748;12.630;2023-11-22T11:48:59;17.33;;;15.00;;
26106;SDS011;13866;50.748;12.630;2023-11-22T11:51:25;17.37;;;15.53;;
26106;SDS011;13866;50.748;12.630;2023-11-22T11:53:52;17.88;;;16.17;;
26106;SDS011;13866;50.748;12.630;2023-11-22T11:56:19;16.88;;;15.27;;
26106;SDS011;13866;50.748;12.630;2023-11-22T11:58:45;19.25;;;16.08;;
26106;SDS011;13866;50.748;12.630;2023-11-22T12:01:14;16.00;;;14.60;;
26106;SDS011;13866;50.748;12.630;2023-11-22T12:03:41;18.20;;;16.33;;
26106;SDS011;13866;50.748;12.630;2023-11-22T12:06:08;19.47;;;15.40;;
26106;SDS011;13866;50.748;12.630;2023-11-22T12:08:34;19.27;;;16.23;;
26106;SDS011;13866;50.748;12.630;2023-11-22T12:11:01;17.03;;;15.33;;
26106;SDS011;13866;50.748;12.630;2023-11-22T12:13:37;18.25;;;14.95;;
26106;SDS011;13866;50.748;12.630;2023-11-22T12:16:04;21.25;;;16.15;;
26106;SDS011;13866;50.748;12.630;2023-11-22T12:18:46;21.58;;;15.68;;
26106;SDS011;13866;50.748;12.630;2023-11-22T12:21:13;18.50;;;16.63;;
26106;SDS011;13866;50.748;12.630;2023-11-22T12:23:40;18.65;;;14.57;;
26106;SDS011;13866;50.748;12.630;2023-11-22T12:26:10;17.90;;;16.10;;
26106;SDS011;13866;50.748;12.630;2023-11-22T12:28:38;19.73;;;17.70;;
26106;SDS011;13866;50.748;12.630;2023-11-22T12:31:08;24.90;;;19.47;;
26106;SDS011;13866;50.748;12.630;2023-11-22T12:33:35;28.47;;;23.80;;
26106;SDS011;13866;50.748;12.630;2023-11-22T12:36:02;24.03;;;18.90;;
26106;SDS011;13866;50.748;12.630;2023-11-22T12:38:29;25.20;;;20.67;;
26106;SDS011;13866;50.748;12.630;2023-11-22T12:40:56;30.40;;;21.30;;
26106;SDS011;13866;50.748;12.630;2023-11-22T12:43:23;28.90;;;21.23;;
26106;SDS011;13866;50.748;12.630;2023-11-22T12:45:58;24.08;;;21.15;;
26106;SDS011;13866;50.748;12.630;2023-11-22T12:48:27;23.53;;;20.00;;
26106;SDS011;13866;50.748;12.630;2023-11-22T12:50:57;21.77;;;19.47;;
26106;SDS011;13866;50.748;12.630;2023-11-22T12:53:24;18.63;;;16.80;;
26106;SDS011;13866;50.748;12.630;2023-11-22T12:55:53;23.10;;;19.10;;
26106;SDS011;13866;50.748;12.630;2023-11-22T12:58:20;23.17;;;19.58;;
26106;SDS011;13866;50.748;12.630;2023-11-22T13:00:48;26.40;;;19.30;;
26106;SDS011;13866;50.748;12.630;2023-11-22T13:03:14;34.90;;;21.17;;
26106;SDS011;13866;50.748;12.630;2023-11-22T13:05:41;21.47;;;17.63;;
26106;SDS011;13866;50.748;12.630;2023-11-22T13:08:08;19.63;;;17.27;;
26106;SDS011;13866;50.748;12.630;2023-11-22T13:10:43;19.53;;;17.10;;
26106;SDS011;13866;50.748;12.630;2023-11-22T13:13:19;19.38;;;17.33;;
26106;SDS011;13866;50.748;12.630;2023-11-22T13:15:49;22.90;;;17.23;;
26106;SDS011;13866;50.748;12.630;2023-11-22T13:18:15;22.10;;;17.30;;
26106;SDS011;13866;50.748;12.630;2023-11-22T13:20:41;19.70;;;16.90;;
26106;SDS011;13866;50.748;12.630;2023-11-22T13:23:08;23.83;;;16.13;;
26106;SDS011;13866;50.748;12.630;2023-11-22T13:25:34;21.67;;;17.40;;
26106;SDS011;13866;50.748;12.630;2023-11-22T13:27:59;17.67;;;15.80;;
26106;SDS011;13866;50.748;12.630;2023-11-22T13:30:25;17.20;;;15.60;;
26106;SDS011;13866;50.748;12.630;2023-11-22T13:32:52;20.92;;;15.93;;
26106;SDS011;13866;50.748;12.630;2023-11-22T13:35:21;23.80;;;16.88;;
26106;SDS011;13866;50.748;12.630;2023-11-22T13:37:47;19.90;;;17.30;;
26106;SDS011;13866;50.748;12.630;2023-11-22T13:40:13;18.33;;;16.33;;
26106;SDS011;13866;50.748;12.630;2023-11-22T13:42:51;21.70;;;18.48;;
26106;SDS011;13866;50.748;12.630;2023-11-22T13:45:20;20.10;;;17.97;;
26106;SDS011;13866;50.748;12.630;2023-11-22T13:50:15;27.03;;;18.43;;
26106;SDS011;13866;50.748;12.630;2023-11-22T13:52:44;26.65;;;21.88;;
26106;SDS011;13866;50.748;12.630;2023-11-22T13:55:11;19.08;;;17.05;;
26106;SDS011;13866;50.748;12.630;2023-11-22T13:57:37;18.30;;;16.37;;
26106;SDS011;13866;50.748;12.630;2023-11-22T14:00:04;27.07;;;18.93;;
26106;SDS011;13866;50.748;12.630;2023-11-22T14:02:34;26.33;;;17.13;;
26106;SDS011;13866;50.748;12.630;2023-11-22T14:05:00;21.50;;;18.50;;
26106;SDS011;13866;50.748;12.630;2023-11-22T14:07:26;25.93;;;19.50;;
26106;SDS011;13866;50.748;12.630;2023-11-22T14:09:52;27.77;;;21.77;;
26106;SDS011;13866;50.748;12.630;2023-11-22T14:12:18;25.90;;;18.83;;
26106;SDS011;13866;50.748;12.630;2023-11-22T14:14:44;22.80;;;19.90;;